Terminal Aerodrome Forecast
Issued by NWS Brownsville, TX

Current Version | Previous Version | Text Only | Print | Product List | Glossary Off
Versions: 1 2 3 4 5 6 7 8 9 10 11 12

000
FTUS44 KBRO 272321
TAFBRO
TAF
KBRO 272321Z 2800/2824 14007KT P6SM SKC
     FM280200 18003KT P6SM SKC
      TEMPO 2809/2812 6SM BR
     FM281600 16015G20KT P6SM SKC=

USA.gov is the U.S. government's official web portal to all federal, state and local government web resources and services.